Warsaw Chopin Airport Warsaw PL
ICAO: EPWA
IATA: WAW
Category: Large
Scheduled Services: Yes

Elevation: 362 ft
TransAlt. 6500 ft.

Airport Communications:
WARSZAWA APP:128.8
ATIS:120.45
CLNC DEL:121.6
WARSZAWA DIR:129.375
GND:121.9
TWR:118.3

EPWA Zoom In..

If you have problems with the map follow the link
https://www.worldairports.se/pages/airport.php?
ICAO=EPWA

Runways:

(A) RW 11 length 9186 ft width 164 ft
ILS 109.90 / hdg 110

(B) RW 15 length 12106 ft width 197 ft
---- / hdg 147

(C) RW 29 length 9186 ft width 164 ft
---- / hdg 290

(D) RW 33 length 12106 ft width 197 ft
ILS 110.30 / hdg 327

Location; EPWA
Day. 05 / Time. 14.00 Zulu
* QNH: 1020
* Temperature: 03° c. 37.4°f.
* Wind from: 210° Speed 05 kn.
Dewpoint: -05° c.
Visibility: 10 km or more,
No clouds below 1,500 m.
No cumulonimbus, and no significant weather
fenomena in the aerodrome or its vicinity.
No significant changes expected in the near future.

EPWA 051400Z 21005KT CAVOK 03/M05 Q1020 NOSIG


Wind From 210°
Speed 05 kn.

 
 
jpsmedia worldairports.se 2019   terms of use